sensor_id;sensor_type;location;lat;lon;timestamp;P1;durP1;ratioP1;P2;durP2;ratioP2
28509;SDS011;15723;55.684;37.928;2023-04-24T00:02:01;37.58;;;17.05;;
28509;SDS011;15723;55.684;37.928;2023-04-24T00:04:31;42.88;;;15.18;;
28509;SDS011;15723;55.684;37.928;2023-04-24T00:06:57;45.55;;;17.27;;
28509;SDS011;15723;55.684;37.928;2023-04-24T00:09:25;40.47;;;16.58;;
28509;SDS011;15723;55.684;37.928;2023-04-24T00:11:52;37.45;;;17.65;;
28509;SDS011;15723;55.684;37.928;2023-04-24T00:14:19;38.10;;;17.15;;
28509;SDS011;15723;55.684;37.928;2023-04-24T00:16:45;36.40;;;17.77;;
28509;SDS011;15723;55.684;37.928;2023-04-24T00:19:11;39.53;;;16.33;;
28509;SDS011;15723;55.684;37.928;2023-04-24T00:21:38;38.75;;;16.65;;
28509;SDS011;15723;55.684;37.928;2023-04-24T00:24:05;39.88;;;18.27;;
28509;SDS011;15723;55.684;37.928;2023-04-24T00:26:32;35.33;;;17.55;;
28509;SDS011;15723;55.684;37.928;2023-04-24T00:28:58;46.05;;;18.10;;
28509;SDS011;15723;55.684;37.928;2023-04-24T00:31:26;43.33;;;17.55;;
28509;SDS011;15723;55.684;37.928;2023-04-24T00:33:52;37.67;;;17.02;;
28509;SDS011;15723;55.684;37.928;2023-04-24T00:36:19;37.45;;;17.40;;
28509;SDS011;15723;55.684;37.928;2023-04-24T00:38:46;40.10;;;18.88;;
28509;SDS011;15723;55.684;37.928;2023-04-24T00:41:12;38.92;;;17.85;;
28509;SDS011;15723;55.684;37.928;2023-04-24T00:43:39;36.65;;;16.98;;
28509;SDS011;15723;55.684;37.928;2023-04-24T00:46:05;40.28;;;17.42;;
28509;SDS011;15723;55.684;37.928;2023-04-24T00:48:32;40.17;;;16.85;;
28509;SDS011;15723;55.684;37.928;2023-04-24T00:50:58;45.40;;;18.33;;
28509;SDS011;15723;55.684;37.928;2023-04-24T00:53:25;42.00;;;16.85;;
28509;SDS011;15723;55.684;37.928;2023-04-24T00:55:51;46.50;;;16.83;;
28509;SDS011;15723;55.684;37.928;2023-04-24T00:58:18;43.90;;;18.80;;
28509;SDS011;15723;55.684;37.928;2023-04-24T01:00:44;41.78;;;18.33;;
28509;SDS011;15723;55.684;37.928;2023-04-24T01:03:11;37.35;;;16.65;;
28509;SDS011;15723;55.684;37.928;2023-04-24T01:05:39;47.10;;;18.10;;
28509;SDS011;15723;55.684;37.928;2023-04-24T01:08:06;44.58;;;17.20;;
28509;SDS011;15723;55.684;37.928;2023-04-24T01:10:32;38.10;;;17.33;;
28509;SDS011;15723;55.684;37.928;2023-04-24T01:13:00;45.42;;;17.33;;
28509;SDS011;15723;55.684;37.928;2023-04-24T01:15:27;39.90;;;17.00;;
28509;SDS011;15723;55.684;37.928;2023-04-24T01:17:53;47.83;;;16.10;;
28509;SDS011;15723;55.684;37.928;2023-04-24T01:20:23;32.55;;;16.20;;
28509;SDS011;15723;55.684;37.928;2023-04-24T01:22:52;32.97;;;15.02;;
28509;SDS011;15723;55.684;37.928;2023-04-24T01:25:23;37.45;;;16.80;;
28509;SDS011;15723;55.684;37.928;2023-04-24T01:27:51;43.20;;;16.20;;
28509;SDS011;15723;55.684;37.928;2023-04-24T01:30:18;35.50;;;15.65;;
28509;SDS011;15723;55.684;37.928;2023-04-24T01:32:45;33.15;;;15.10;;
28509;SDS011;15723;55.684;37.928;2023-04-24T01:35:11;32.88;;;16.50;;
28509;SDS011;15723;55.684;37.928;2023-04-24T01:37:38;30.33;;;14.45;;
28509;SDS011;15723;55.684;37.928;2023-04-24T01:40:05;35.25;;;15.07;;
28509;SDS011;15723;55.684;37.928;2023-04-24T01:42:33;40.35;;;14.20;;
28509;SDS011;15723;55.684;37.928;2023-04-24T01:45:01;31.73;;;15.32;;
28509;SDS011;15723;55.684;37.928;2023-04-24T01:47:30;32.85;;;15.27;;
28509;SDS011;15723;55.684;37.928;2023-04-24T01:49:58;42.05;;;15.63;;
28509;SDS011;15723;55.684;37.928;2023-04-24T01:52:24;29.80;;;14.45;;
28509;SDS011;15723;55.684;37.928;2023-04-24T01:54:51;40.05;;;16.17;;
28509;SDS011;15723;55.684;37.928;2023-04-24T01:57:18;32.97;;;15.02;;
28509;SDS011;15723;55.684;37.928;2023-04-24T01:59:45;36.05;;;14.75;;
28509;SDS011;15723;55.684;37.928;2023-04-24T02:02:11;46.22;;;15.88;;
28509;SDS011;15723;55.684;37.928;2023-04-24T02:04:37;44.25;;;16.58;;
28509;SDS011;15723;55.684;37.928;2023-04-24T02:07:04;43.60;;;16.23;;
28509;SDS011;15723;55.684;37.928;2023-04-24T02:09:31;33.92;;;15.60;;
28509;SDS011;15723;55.684;37.928;2023-04-24T02:11:58;35.58;;;15.30;;
28509;SDS011;15723;55.684;37.928;2023-04-24T02:14:24;37.03;;;15.35;;
28509;SDS011;15723;55.684;37.928;2023-04-24T02:16:51;35.15;;;15.45;;
28509;SDS011;15723;55.684;37.928;2023-04-24T02:19:19;46.30;;;15.35;;
28509;SDS011;15723;55.684;37.928;2023-04-24T02:21:45;37.08;;;15.30;;
28509;SDS011;15723;55.684;37.928;2023-04-24T02:24:12;41.20;;;15.57;;
28509;SDS011;15723;55.684;37.928;2023-04-24T02:26:38;39.30;;;15.93;;
28509;SDS011;15723;55.684;37.928;2023-04-24T02:29:05;33.30;;;15.80;;
28509;SDS011;15723;55.684;37.928;2023-04-24T02:31:31;41.17;;;17.10;;
28509;SDS011;15723;55.684;37.928;2023-04-24T02:33:58;50.17;;;18.30;;
28509;SDS011;15723;55.684;37.928;2023-04-24T02:36:24;48.65;;;18.27;;
28509;SDS011;15723;55.684;37.928;2023-04-24T02:38:50;40.97;;;16.77;;
28509;SDS011;15723;55.684;37.928;2023-04-24T02:41:17;43.90;;;16.17;;
28509;SDS011;15723;55.684;37.928;2023-04-24T02:43:43;40.70;;;16.02;;
28509;SDS011;15723;55.684;37.928;2023-04-24T02:46:10;42.70;;;17.77;;
28509;SDS011;15723;55.684;37.928;2023-04-24T02:48:36;56.58;;;22.75;;
28509;SDS011;15723;55.684;37.928;2023-04-24T02:51:02;45.70;;;20.05;;
28509;SDS011;15723;55.684;37.928;2023-04-24T02:53:29;50.60;;;21.88;;
28509;SDS011;15723;55.684;37.928;2023-04-24T02:55:56;51.13;;;21.02;;
28509;SDS011;15723;55.684;37.928;2023-04-24T02:58:22;55.67;;;21.48;;
28509;SDS011;15723;55.684;37.928;2023-04-24T03:00:49;52.17;;;21.88;;
28509;SDS011;15723;55.684;37.928;2023-04-24T03:03:20;49.65;;;23.05;;
28509;SDS011;15723;55.684;37.928;2023-04-24T03:05:46;46.35;;;22.52;;
28509;SDS011;15723;55.684;37.928;2023-04-24T03:08:12;51.60;;;21.95;;
28509;SDS011;15723;55.684;37.928;2023-04-24T03:10:41;47.15;;;20.98;;
28509;SDS011;15723;55.684;37.928;2023-04-24T03:13:08;43.53;;;20.25;;
28509;SDS011;15723;55.684;37.928;2023-04-24T03:15:34;43.90;;;17.65;;
28509;SDS011;15723;55.684;37.928;2023-04-24T03:18:01;53.58;;;17.45;;
28509;SDS011;15723;55.684;37.928;2023-04-24T03:20:28;45.08;;;18.13;;
28509;SDS011;15723;55.684;37.928;2023-04-24T03:22:56;40.60;;;16.70;;
28509;SDS011;15723;55.684;37.928;2023-04-24T03:25:22;65.10;;;20.65;;
28509;SDS011;15723;55.684;37.928;2023-04-24T03:27:49;59.45;;;21.33;;
28509;SDS011;15723;55.684;37.928;2023-04-24T03:30:42;67.55;;;20.75;;
28509;SDS011;15723;55.684;37.928;2023-04-24T03:33:09;66.03;;;21.00;;
28509;SDS011;15723;55.684;37.928;2023-04-24T03:35:40;70.68;;;21.45;;
28509;SDS011;15723;55.684;37.928;2023-04-24T03:38:09;55.00;;;19.33;;
28509;SDS011;15723;55.684;37.928;2023-04-24T03:40:41;72.93;;;21.45;;
28509;SDS011;15723;55.684;37.928;2023-04-24T03:43:30;58.35;;;19.83;;
28509;SDS011;15723;55.684;37.928;2023-04-24T03:46:01;67.03;;;19.38;;
28509;SDS011;15723;55.684;37.928;2023-04-24T03:48:31;58.60;;;20.55;;
28509;SDS011;15723;55.684;37.928;2023-04-24T03:50:57;37.95;;;18.27;;
28509;SDS011;15723;55.684;37.928;2023-04-24T03:53:24;48.38;;;19.10;;
28509;SDS011;15723;55.684;37.928;2023-04-24T03:55:53;43.10;;;18.27;;
28509;SDS011;15723;55.684;37.928;2023-04-24T03:58:19;45.47;;;19.15;;
28509;SDS011;15723;55.684;37.928;2023-04-24T04:00:46;44.53;;;18.48;;
28509;SDS011;15723;55.684;37.928;2023-04-24T04:03:32;39.42;;;17.95;;
28509;SDS011;15723;55.684;37.928;2023-04-24T04:05:59;30.05;;;16.13;;
28509;SDS011;15723;55.684;37.928;2023-04-24T04:08:25;37.95;;;15.68;;
28509;SDS011;15723;55.684;37.928;2023-04-24T04:10:52;37.83;;;16.05;;
28509;SDS011;15723;55.684;37.928;2023-04-24T04:13:18;35.72;;;16.30;;
28509;SDS011;15723;55.684;37.928;2023-04-24T04:15:45;26.88;;;15.63;;
28509;SDS011;15723;55.684;37.928;2023-04-24T04:18:12;31.65;;;16.25;;
28509;SDS011;15723;55.684;37.928;2023-04-24T04:20:39;32.90;;;16.90;;
28509;SDS011;15723;55.684;37.928;2023-04-24T04:23:06;33.55;;;16.33;;
28509;SDS011;15723;55.684;37.928;2023-04-24T04:25:42;41.53;;;17.70;;
28509;SDS011;15723;55.684;37.928;2023-04-24T04:28:08;46.47;;;18.40;;
28509;SDS011;15723;55.684;37.928;2023-04-24T04:30:35;35.63;;;18.13;;
28509;SDS011;15723;55.684;37.928;2023-04-24T04:33:04;39.17;;;20.20;;
28509;SDS011;15723;55.684;37.928;2023-04-24T04:35:30;32.58;;;17.58;;
28509;SDS011;15723;55.684;37.928;2023-04-24T04:37:57;24.55;;;16.17;;
28509;SDS011;15723;55.684;37.928;2023-04-24T04:40:36;32.42;;;16.33;;
28509;SDS011;15723;55.684;37.928;2023-04-24T04:43:05;29.98;;;17.15;;
28509;SDS011;15723;55.684;37.928;2023-04-24T04:45:40;27.73;;;15.95;;
28509;SDS011;15723;55.684;37.928;2023-04-24T04:48:38;26.88;;;14.98;;
28509;SDS011;15723;55.684;37.928;2023-04-24T04:51:06;28.25;;;15.48;;
28509;SDS011;15723;55.684;37.928;2023-04-24T04:53:32;26.48;;;14.43;;
28509;SDS011;15723;55.684;37.928;2023-04-24T04:55:59;24.33;;;13.95;;
28509;SDS011;15723;55.684;37.928;2023-04-24T04:58:31;26.38;;;14.43;;
28509;SDS011;15723;55.684;37.928;2023-04-24T05:01:00;25.33;;;14.00;;
28509;SDS011;15723;55.684;37.928;2023-04-24T05:03:30;24.88;;;12.13;;
28509;SDS011;15723;55.684;37.928;2023-04-24T05:06:02;25.23;;;13.80;;
28509;SDS011;15723;55.684;37.928;2023-04-24T05:08:32;30.58;;;13.80;;
28509;SDS011;15723;55.684;37.928;2023-04-24T05:10:59;20.35;;;13.77;;
28509;SDS011;15723;55.684;37.928;2023-04-24T05:13:28;22.17;;;13.93;;
28509;SDS011;15723;55.684;37.928;2023-04-24T05:15:55;32.83;;;13.60;;
28509;SDS011;15723;55.684;37.928;2023-04-24T05:18:22;28.45;;;13.68;;
28509;SDS011;15723;55.684;37.928;2023-04-24T05:20:49;30.58;;;13.45;;
28509;SDS011;15723;55.684;37.928;2023-04-24T05:23:15;22.35;;;12.95;;
28509;SDS011;15723;55.684;37.928;2023-04-24T05:25:44;34.15;;;13.52;;
28509;SDS011;15723;55.684;37.928;2023-04-24T05:28:13;28.55;;;14.05;;
28509;SDS011;15723;55.684;37.928;2023-04-24T05:30:42;25.08;;;13.25;;
28509;SDS011;15723;55.684;37.928;2023-04-24T05:33:10;25.70;;;11.70;;
28509;SDS011;15723;55.684;37.928;2023-04-24T05:35:36;29.33;;;13.75;;
28509;SDS011;15723;55.684;37.928;2023-04-24T05:38:03;22.88;;;14.55;;
28509;SDS011;15723;55.684;37.928;2023-04-24T05:40:29;26.67;;;13.90;;
28509;SDS011;15723;55.684;37.928;2023-04-24T05:42:56;20.85;;;12.57;;
28509;SDS011;15723;55.684;37.928;2023-04-24T05:45:24;28.88;;;15.50;;
28509;SDS011;15723;55.684;37.928;2023-04-24T05:47:50;33.40;;;14.27;;
28509;SDS011;15723;55.684;37.928;2023-04-24T05:50:18;27.95;;;13.98;;
28509;SDS011;15723;55.684;37.928;2023-04-24T05:52:46;21.40;;;13.40;;
28509;SDS011;15723;55.684;37.928;2023-04-24T05:55:23;24.48;;;11.10;;
28509;SDS011;15723;55.684;37.928;2023-04-24T05:57:52;28.35;;;12.57;;
28509;SDS011;15723;55.684;37.928;2023-04-24T06:00:18;21.70;;;11.10;;
28509;SDS011;15723;55.684;37.928;2023-04-24T06:02:53;24.55;;;10.25;;
28509;SDS011;15723;55.684;37.928;2023-04-24T06:05:21;22.27;;;8.95;;
28509;SDS011;15723;55.684;37.928;2023-04-24T06:07:47;22.77;;;12.65;;
28509;SDS011;15723;55.684;37.928;2023-04-24T06:10:14;21.38;;;8.77;;
28509;SDS011;15723;55.684;37.928;2023-04-24T06:12:43;15.43;;;8.25;;
28509;SDS011;15723;55.684;37.928;2023-04-24T06:15:15;16.85;;;7.97;;
28509;SDS011;15723;55.684;37.928;2023-04-24T06:18:05;20.52;;;8.10;;
28509;SDS011;15723;55.684;37.928;2023-04-24T06:20:32;12.23;;;7.07;;
28509;SDS011;15723;55.684;37.928;2023-04-24T06:22:58;9.90;;;6.88;;
28509;SDS011;15723;55.684;37.928;2023-04-24T06:25:25;13.48;;;7.05;;
28509;SDS011;15723;55.684;37.928;2023-04-24T06:27:52;15.75;;;6.90;;
28509;SDS011;15723;55.684;37.928;2023-04-24T06:30:19;14.77;;;6.88;;
28509;SDS011;15723;55.684;37.928;2023-04-24T06:32:45;12.23;;;6.50;;
28509;SDS011;15723;55.684;37.928;2023-04-24T06:35:12;9.40;;;6.03;;
28509;SDS011;15723;55.684;37.928;2023-04-24T06:37:39;18.73;;;6.90;;
28509;SDS011;15723;55.684;37.928;2023-04-24T06:40:06;11.60;;;5.70;;
28509;SDS011;15723;55.684;37.928;2023-04-24T06:42:33;9.35;;;5.25;;
28509;SDS011;15723;55.684;37.928;2023-04-24T06:45:02;13.07;;;5.45;;
28509;SDS011;15723;55.684;37.928;2023-04-24T06:47:30;16.67;;;7.13;;
28509;SDS011;15723;55.684;37.928;2023-04-24T06:49:57;16.75;;;7.40;;
28509;SDS011;15723;55.684;37.928;2023-04-24T06:52:24;17.40;;;6.90;;
28509;SDS011;15723;55.684;37.928;2023-04-24T06:54:50;14.82;;;6.10;;
28509;SDS011;15723;55.684;37.928;2023-04-24T06:57:17;11.70;;;6.00;;
28509;SDS011;15723;55.684;37.928;2023-04-24T06:59:43;17.70;;;7.32;;
28509;SDS011;15723;55.684;37.928;2023-04-24T07:02:10;11.43;;;5.90;;
28509;SDS011;15723;55.684;37.928;2023-04-24T07:04:36;7.07;;;4.28;;
28509;SDS011;15723;55.684;37.928;2023-04-24T07:07:03;7.28;;;4.45;;
28509;SDS011;15723;55.684;37.928;2023-04-24T07:09:30;9.55;;;4.40;;
28509;SDS011;15723;55.684;37.928;2023-04-24T07:11:57;12.02;;;4.95;;
28509;SDS011;15723;55.684;37.928;2023-04-24T07:14:23;5.15;;;3.85;;
28509;SDS011;15723;55.684;37.928;2023-04-24T07:16:49;4.72;;;3.80;;
28509;SDS011;15723;55.684;37.928;2023-04-24T07:19:16;7.10;;;4.32;;
28509;SDS011;15723;55.684;37.928;2023-04-24T07:21:42;6.72;;;4.28;;
28509;SDS011;15723;55.684;37.928;2023-04-24T07:24:08;5.90;;;3.83;;
28509;SDS011;15723;55.684;37.928;2023-04-24T07:26:36;10.13;;;4.60;;
28509;SDS011;15723;55.684;37.928;2023-04-24T07:29:03;6.63;;;3.88;;
28509;SDS011;15723;55.684;37.928;2023-04-24T07:31:29;19.02;;;4.05;;
28509;SDS011;15723;55.684;37.928;2023-04-24T07:33:56;8.63;;;4.05;;
28509;SDS011;15723;55.684;37.928;2023-04-24T07:36:24;5.03;;;3.53;;
28509;SDS011;15723;55.684;37.928;2023-04-24T07:38:51;7.60;;;3.90;;
28509;SDS011;15723;55.684;37.928;2023-04-24T07:41:18;8.95;;;4.00;;
28509;SDS011;15723;55.684;37.928;2023-04-24T07:43:44;7.43;;;3.47;;
28509;SDS011;15723;55.684;37.928;2023-04-24T07:46:11;10.40;;;3.75;;
28509;SDS011;15723;55.684;37.928;2023-04-24T07:48:37;5.93;;;3.45;;
28509;SDS011;15723;55.684;37.928;2023-04-24T07:51:04;5.78;;;3.90;;
28509;SDS011;15723;55.684;37.928;2023-04-24T07:53:30;16.75;;;4.13;;
28509;SDS011;15723;55.684;37.928;2023-04-24T07:55:57;9.55;;;3.58;;
28509;SDS011;15723;55.684;37.928;2023-04-24T07:58:23;7.82;;;3.30;;
28509;SDS011;15723;55.684;37.928;2023-04-24T08:00:49;6.30;;;3.50;;
28509;SDS011;15723;55.684;37.928;2023-04-24T08:03:16;7.20;;;3.40;;
28509;SDS011;15723;55.684;37.928;2023-04-24T08:05:45;6.65;;;3.67;;
28509;SDS011;15723;55.684;37.928;2023-04-24T08:08:11;17.83;;;4.57;;
28509;SDS011;15723;55.684;37.928;2023-04-24T08:10:37;20.10;;;4.53;;
28509;SDS011;15723;55.684;37.928;2023-04-24T08:13:04;10.05;;;4.53;;
28509;SDS011;15723;55.684;37.928;2023-04-24T08:15:30;15.98;;;4.05;;
28509;SDS011;15723;55.684;37.928;2023-04-24T08:17:57;7.82;;;4.28;;
28509;SDS011;15723;55.684;37.928;2023-04-24T08:20:23;6.25;;;3.58;;
28509;SDS011;15723;55.684;37.928;2023-04-24T08:22:49;6.18;;;3.72;;
28509;SDS011;15723;55.684;37.928;2023-04-24T08:25:17;5.85;;;3.85;;
28509;SDS011;15723;55.684;37.928;2023-04-24T08:27:46;4.35;;;3.95;;
28509;SDS011;15723;55.684;37.928;2023-04-24T08:30:12;5.13;;;3.65;;
28509;SDS011;15723;55.684;37.928;2023-04-24T08:32:38;7.88;;;4.03;;
28509;SDS011;15723;55.684;37.928;2023-04-24T08:35:05;8.15;;;3.95;;
28509;SDS011;15723;55.684;37.928;2023-04-24T08:37:34;6.10;;;3.75;;
28509;SDS011;15723;55.684;37.928;2023-04-24T08:40:02;7.85;;;4.22;;
28509;SDS011;15723;55.684;37.928;2023-04-24T08:42:37;6.03;;;4.40;;
28509;SDS011;15723;55.684;37.928;2023-04-24T08:45:05;9.77;;;4.78;;
28509;SDS011;15723;55.684;37.928;2023-04-24T08:47:32;6.78;;;3.90;;
28509;SDS011;15723;55.684;37.928;2023-04-24T08:50:00;5.60;;;4.47;;
28509;SDS011;15723;55.684;37.928;2023-04-24T08:52:29;9.93;;;5.05;;
28509;SDS011;15723;55.684;37.928;2023-04-24T08:54:56;7.15;;;4.40;;
28509;SDS011;15723;55.684;37.928;2023-04-24T08:57:22;7.40;;;4.80;;
28509;SDS011;15723;55.684;37.928;2023-04-24T08:59:50;8.20;;;4.55;;
28509;SDS011;15723;55.684;37.928;2023-04-24T09:02:17;6.75;;;4.43;;
28509;SDS011;15723;55.684;37.928;2023-04-24T09:04:44;7.40;;;4.22;;
28509;SDS011;15723;55.684;37.928;2023-04-24T09:07:12;4.63;;;4.18;;
28509;SDS011;15723;55.684;37.928;2023-04-24T09:09:42;7.75;;;4.35;;
28509;SDS011;15723;55.684;37.928;2023-04-24T09:12:09;10.68;;;4.70;;
28509;SDS011;15723;55.684;37.928;2023-04-24T09:14:36;6.03;;;4.68;;
28509;SDS011;15723;55.684;37.928;2023-04-24T09:17:08;8.23;;;4.50;;
28509;SDS011;15723;55.684;37.928;2023-04-24T09:19:34;11.40;;;5.25;;
28509;SDS011;15723;55.684;37.928;2023-04-24T09:22:04;8.43;;;4.72;;
28509;SDS011;15723;55.684;37.928;2023-04-24T09:24:33;74.13;;;8.77;;
28509;SDS011;15723;55.684;37.928;2023-04-24T09:27:00;14.88;;;4.65;;
28509;SDS011;15723;55.684;37.928;2023-04-24T09:29:28;8.38;;;4.72;;
28509;SDS011;15723;55.684;37.928;2023-04-24T09:31:54;6.97;;;4.07;;
28509;SDS011;15723;55.684;37.928;2023-04-24T09:34:24;15.23;;;4.75;;
28509;SDS011;15723;55.684;37.928;2023-04-24T09:36:52;7.22;;;4.38;;
28509;SDS011;15723;55.684;37.928;2023-04-24T09:39:19;7.40;;;4.70;;
28509;SDS011;15723;55.684;37.928;2023-04-24T09:41:52;7.35;;;4.07;;
28509;SDS011;15723;55.684;37.928;2023-04-24T09:44:24;7.63;;;4.60;;
28509;SDS011;15723;55.684;37.928;2023-04-24T09:46:53;6.38;;;4.60;;
28509;SDS011;15723;55.684;37.928;2023-04-24T09:49:24;5.63;;;4.28;;
28509;SDS011;15723;55.684;37.928;2023-04-24T09:52:01;7.43;;;5.28;;
28509;SDS011;15723;55.684;37.928;2023-04-24T09:54:29;8.70;;;4.60;;
28509;SDS011;15723;55.684;37.928;2023-04-24T09:56:56;11.55;;;4.68;;
28509;SDS011;15723;55.684;37.928;2023-04-24T09:59:22;4.93;;;4.10;;
28509;SDS011;15723;55.684;37.928;2023-04-24T10:01:49;6.32;;;4.25;;
28509;SDS011;15723;55.684;37.928;2023-04-24T10:06:46;5.70;;;4.45;;
28509;SDS011;15723;55.684;37.928;2023-04-24T10:09:15;7.13;;;4.50;;
28509;SDS011;15723;55.684;37.928;2023-04-24T10:11:43;10.30;;;4.80;;
28509;SDS011;15723;55.684;37.928;2023-04-24T10:14:12;5.22;;;3.97;;
28509;SDS011;15723;55.684;37.928;2023-04-24T10:16:39;8.30;;;4.93;;
28509;SDS011;15723;55.684;37.928;2023-04-24T10:19:07;15.40;;;4.85;;
28509;SDS011;15723;55.684;37.928;2023-04-24T10:21:34;10.70;;;4.47;;
28509;SDS011;15723;55.684;37.928;2023-04-24T10:24:03;11.07;;;4.70;;
28509;SDS011;15723;55.684;37.928;2023-04-24T10:26:34;7.18;;;4.63;;
28509;SDS011;15723;55.684;37.928;2023-04-24T10:29:01;9.82;;;4.82;;
28509;SDS011;15723;55.684;37.928;2023-04-24T10:31:30;6.25;;;4.38;;
28509;SDS011;15723;55.684;37.928;2023-04-24T10:33:58;7.82;;;5.15;;
28509;SDS011;15723;55.684;37.928;2023-04-24T10:36:27;12.70;;;5.28;;
28509;SDS011;15723;55.684;37.928;2023-04-24T10:38:58;9.25;;;4.90;;
28509;SDS011;15723;55.684;37.928;2023-04-24T10:41:28;8.10;;;4.95;;
28509;SDS011;15723;55.684;37.928;2023-04-24T10:44:09;9.50;;;4.88;;
28509;SDS011;15723;55.684;37.928;2023-04-24T10:46:38;8.68;;;4.82;;
28509;SDS011;15723;55.684;37.928;2023-04-24T10:49:06;7.43;;;4.53;;
28509;SDS011;15723;55.684;37.928;2023-04-24T10:51:49;7.53;;;4.72;;
28509;SDS011;15723;55.684;37.928;2023-04-24T10:54:25;5.80;;;4.20;;
28509;SDS011;15723;55.684;37.928;2023-04-24T10:56:55;8.30;;;4.70;;
28509;SDS011;15723;55.684;37.928;2023-04-24T10:59:46;6.70;;;4.50;;
28509;SDS011;15723;55.684;37.928;2023-04-24T11:02:17;8.60;;;4.60;;
28509;SDS011;15723;55.684;37.928;2023-04-24T11:04:44;8.13;;;4.57;;
28509;SDS011;15723;55.684;37.928;2023-04-24T11:07:11;6.10;;;4.00;;
28509;SDS011;15723;55.684;37.928;2023-04-24T11:09:38;7.47;;;4.38;;
28509;SDS011;15723;55.684;37.928;2023-04-24T11:12:11;10.98;;;3.88;;
28509;SDS011;15723;55.684;37.928;2023-04-24T11:17:34;7.47;;;3.97;;
28509;SDS011;15723;55.684;37.928;2023-04-24T11:20:07;8.95;;;4.38;;
28509;SDS011;15723;55.684;37.928;2023-04-24T11:22:36;6.63;;;3.87;;
28509;SDS011;15723;55.684;37.928;2023-04-24T11:25:05;7.32;;;3.60;;
28509;SDS011;15723;55.684;37.928;2023-04-24T11:27:43;6.30;;;3.53;;
28509;SDS011;15723;55.684;37.928;2023-04-24T11:30:13;10.98;;;4.20;;
28509;SDS011;15723;55.684;37.928;2023-04-24T11:32:46;5.90;;;3.60;;
28509;SDS011;15723;55.684;37.928;2023-04-24T11:35:16;7.18;;;3.92;;
28509;SDS011;15723;55.684;37.928;2023-04-24T11:37:45;7.10;;;3.33;;
28509;SDS011;15723;55.684;37.928;2023-04-24T11:40:16;7.60;;;3.50;;
28509;SDS011;15723;55.684;37.928;2023-04-24T11:42:46;8.68;;;3.47;;
28509;SDS011;15723;55.684;37.928;2023-04-24T11:45:31;6.25;;;3.40;;
28509;SDS011;15723;55.684;37.928;2023-04-24T11:47:58;7.00;;;3.55;;
28509;SDS011;15723;55.684;37.928;2023-04-24T11:50:25;7.65;;;3.47;;
28509;SDS011;15723;55.684;37.928;2023-04-24T11:52:53;9.75;;;4.05;;
28509;SDS011;15723;55.684;37.928;2023-04-24T11:57:46;9.50;;;3.65;;
28509;SDS011;15723;55.684;37.928;2023-04-24T12:00:18;11.05;;;3.88;;
28509;SDS011;15723;55.684;37.928;2023-04-24T12:02:46;10.82;;;4.38;;
28509;SDS011;15723;55.684;37.928;2023-04-24T12:05:23;9.98;;;4.35;;
28509;SDS011;15723;55.684;37.928;2023-04-24T12:07:51;7.72;;;3.95;;
28509;SDS011;15723;55.684;37.928;2023-04-24T12:10:22;5.88;;;3.97;;
28509;SDS011;15723;55.684;37.928;2023-04-24T12:12:50;7.07;;;3.25;;
28509;SDS011;15723;55.684;37.928;2023-04-24T12:15:18;5.95;;;3.72;;
28509;SDS011;15723;55.684;37.928;2023-04-24T12:17:45;19.48;;;6.13;;
28509;SDS011;15723;55.684;37.928;2023-04-24T12:20:12;11.30;;;3.92;;
28509;SDS011;15723;55.684;37.928;2023-04-24T12:22:43;13.18;;;4.55;;
28509;SDS011;15723;55.684;37.928;2023-04-24T12:25:17;9.13;;;4.00;;
28509;SDS011;15723;55.684;37.928;2023-04-24T12:27:46;6.32;;;3.85;;
28509;SDS011;15723;55.684;37.928;2023-04-24T12:30:18;11.27;;;3.37;;
28509;SDS011;15723;55.684;37.928;2023-04-24T12:32:48;8.80;;;3.55;;
28509;SDS011;15723;55.684;37.928;2023-04-24T12:35:19;7.45;;;3.60;;
28509;SDS011;15723;55.684;37.928;2023-04-24T12:37:52;11.55;;;3.67;;
28509;SDS011;15723;55.684;37.928;2023-04-24T12:40:19;6.15;;;3.58;;
28509;SDS011;15723;55.684;37.928;2023-04-24T12:42:50;7.35;;;3.15;;
28509;SDS011;15723;55.684;37.928;2023-04-24T12:45:17;8.20;;;3.55;;
28509;SDS011;15723;55.684;37.928;2023-04-24T12:47:45;9.38;;;3.78;;
28509;SDS011;15723;55.684;37.928;2023-04-24T12:50:12;5.55;;;3.20;;
28509;SDS011;15723;55.684;37.928;2023-04-24T12:52:40;5.90;;;3.35;;
28509;SDS011;15723;55.684;37.928;2023-04-24T12:55:08;8.82;;;3.47;;
28509;SDS011;15723;55.684;37.928;2023-04-24T12:57:36;10.57;;;3.65;;
28509;SDS011;15723;55.684;37.928;2023-04-24T13:00:04;7.78;;;3.00;;
28509;SDS011;15723;55.684;37.928;2023-04-24T13:02:33;10.00;;;4.13;;
28509;SDS011;15723;55.684;37.928;2023-04-24T13:05:03;8.57;;;3.60;;
28509;SDS011;15723;55.684;37.928;2023-04-24T13:07:32;4.72;;;3.30;;
28509;SDS011;15723;55.684;37.928;2023-04-24T13:09:59;5.65;;;3.30;;
28509;SDS011;15723;55.684;37.928;2023-04-24T13:12:25;6.78;;;2.80;;
28509;SDS011;15723;55.684;37.928;2023-04-24T13:14:52;9.30;;;3.33;;
28509;SDS011;15723;55.684;37.928;2023-04-24T13:17:19;7.90;;;3.40;;
28509;SDS011;15723;55.684;37.928;2023-04-24T13:19:46;5.80;;;3.05;;
28509;SDS011;15723;55.684;37.928;2023-04-24T13:22:12;7.63;;;3.08;;
28509;SDS011;15723;55.684;37.928;2023-04-24T13:24:39;7.03;;;2.97;;
28509;SDS011;15723;55.684;37.928;2023-04-24T13:27:07;8.05;;;3.00;;
28509;SDS011;15723;55.684;37.928;2023-04-24T13:29:34;14.00;;;7.30;;
28509;SDS011;15723;55.684;37.928;2023-04-24T13:32:00;9.70;;;4.88;;
28509;SDS011;15723;55.684;37.928;2023-04-24T13:34:26;6.38;;;3.30;;
28509;SDS011;15723;55.684;37.928;2023-04-24T13:36:54;6.25;;;3.45;;
28509;SDS011;15723;55.684;37.928;2023-04-24T13:39:22;9.18;;;3.25;;
28509;SDS011;15723;55.684;37.928;2023-04-24T13:41:49;6.25;;;3.22;;
28509;SDS011;15723;55.684;37.928;2023-04-24T13:44:16;6.97;;;3.10;;
28509;SDS011;15723;55.684;37.928;2023-04-24T13:46:53;4.55;;;3.13;;
28509;SDS011;15723;55.684;37.928;2023-04-24T13:49:22;4.82;;;2.88;;
28509;SDS011;15723;55.684;37.928;2023-04-24T13:51:53;6.10;;;2.85;;
28509;SDS011;15723;55.684;37.928;2023-04-24T13:56:51;15.75;;;5.32;;
28509;SDS011;15723;55.684;37.928;2023-04-24T13:59:19;6.43;;;3.20;;
28509;SDS011;15723;55.684;37.928;2023-04-24T14:01:49;7.75;;;3.05;;
28509;SDS011;15723;55.684;37.928;2023-04-24T14:04:15;4.45;;;3.53;;
28509;SDS011;15723;55.684;37.928;2023-04-24T14:06:43;8.00;;;3.85;;
28509;SDS011;15723;55.684;37.928;2023-04-24T14:09:09;6.00;;;2.92;;
28509;SDS011;15723;55.684;37.928;2023-04-24T14:11:36;8.43;;;3.47;;
28509;SDS011;15723;55.684;37.928;2023-04-24T14:14:02;5.22;;;3.05;;
28509;SDS011;15723;55.684;37.928;2023-04-24T14:16:29;7.25;;;3.42;;
28509;SDS011;15723;55.684;37.928;2023-04-24T14:18:56;6.43;;;3.33;;
28509;SDS011;15723;55.684;37.928;2023-04-24T14:21:22;3.85;;;3.28;;
28509;SDS011;15723;55.684;37.928;2023-04-24T14:23:48;8.68;;;3.17;;
28509;SDS011;15723;55.684;37.928;2023-04-24T14:26:15;7.95;;;2.60;;
28509;SDS011;15723;55.684;37.928;2023-04-24T14:28:41;10.18;;;3.47;;
28509;SDS011;15723;55.684;37.928;2023-04-24T14:31:07;11.95;;;4.13;;
28509;SDS011;15723;55.684;37.928;2023-04-24T14:33:34;10.10;;;3.25;;
28509;SDS011;15723;55.684;37.928;2023-04-24T14:36:01;7.65;;;2.97;;
28509;SDS011;15723;55.684;37.928;2023-04-24T14:38:28;6.57;;;3.28;;